Time;durP1;ratioP1;P1;durP2;ratioP2;P2;SDS_P1;SDS_P2;PMS_P1;PMS_P2;Temp;Humidity;BMP_temperature;BMP_pressure;BME280_temperature;BME280_humidity;BME280_pressure;Samples;Min_cycle;Max_cycle;Signal;HPM_P1;HPM_P2
2020/12/09 08:02:34;;;;;;;13.43;4.32;;;;;;;;;;5058658;28;20392;-74
2020/12/09 08:05:11;;;;;;;26.20;8.52;;;;;;;;;;5050288;28;20690;-75
2020/12/09 08:07:46;;;;;;;43.83;17.10;;;;;;;;;;5066671;28;20090;-74
2020/12/09 08:10:11;;;;;;;47.40;16.50;;;;;;;;;;5066625;28;20043;-75
2020/12/09 08:12:39;;;;;;;34.78;11.98;;;;;;;;;;5066287;28;20112;-74
2020/12/09 08:15:05;;;;;;;41.38;16.17;;;;;;;;;;5044964;28;20586;-73
2020/12/09 08:17:30;;;;;;;23.95;6.97;;;;;;;;;;5053986;28;20060;-74
2020/12/09 08:20:02;;;;;;;29.13;11.18;;;;;;;;;;5067285;28;20044;-74
2020/12/09 08:22:27;;;;;;;32.90;10.15;;;;;;;;;;5039013;28;20045;-74
2020/12/09 08:25:05;;;;;;;24.92;9.50;;;;;;;;;;5037203;28;20040;-74
2020/12/09 08:27:40;;;;;;;38.08;9.65;;;;;;;;;;5043956;28;20385;-75
2020/12/09 08:30:06;;;;;;;14.80;3.78;;;;;;;;;;5044454;28;20036;-74
2020/12/09 08:32:32;;;;;;;17.00;4.80;;;;;;;;;;5056857;28;20085;-75
2020/12/09 08:35:10;;;;;;;14.40;4.43;;;;;;;;;;5047918;28;20040;-74
2020/12/09 08:37:42;;;;;;;11.32;3.97;;;;;;;;;;5056801;28;20536;-74
2020/12/09 08:40:08;;;;;;;15.88;4.25;;;;;;;;;;5053955;28;20029;-74
2020/12/09 08:42:33;;;;;;;21.33;5.60;;;;;;;;;;5056059;28;20520;-74
2020/12/09 08:44:58;;;;;;;14.73;5.40;;;;;;;;;;5047944;28;20105;-75
2020/12/09 08:47:24;;;;;;;24.02;9.18;;;;;;;;;;5056507;28;20508;-74
2020/12/09 08:49:49;;;;;;;39.17;14.68;;;;;;;;;;5061839;28;20021;-78
2020/12/09 08:52:14;;;;;;;43.38;16.15;;;;;;;;;;5038714;28;20604;-76
2020/12/09 08:54:39;;;;;;;50.80;17.25;;;;;;;;;;5042441;28;20041;-75
2020/12/09 08:57:05;;;;;;;48.25;18.40;;;;;;;;;;5042730;28;20021;-75
2020/12/09 08:59:30;;;;;;;46.10;15.27;;;;;;;;;;5058109;28;20633;-76
2020/12/09 09:01:55;;;;;;;32.90;14.20;;;;;;;;;;5048554;28;20088;-74
2020/12/09 09:04:26;;;;;;;41.67;13.07;;;;;;;;;;5050552;28;20610;-74
2020/12/09 09:06:52;;;;;;;38.60;11.65;;;;;;;;;;5056564;28;20028;-75
2020/12/09 09:09:17;;;;;;;28.50;10.45;;;;;;;;;;5044611;28;20464;-74
2020/12/09 09:11:42;;;;;;;36.55;9.88;;;;;;;;;;5041812;28;20033;-75
2020/12/09 09:14:08;;;;;;;34.10;10.48;;;;;;;;;;5036195;28;20476;-75
2020/12/09 09:16:35;;;;;;;47.33;12.55;;;;;;;;;;5035103;28;20120;-73
2020/12/09 09:19:00;;;;;;;25.50;10.25;;;;;;;;;;5043294;28;20017;-74
2020/12/09 09:21:32;;;;;;;34.10;10.10;;;;;;;;;;5031521;28;20131;-74
2020/12/09 09:23:57;;;;;;;54.60;15.25;;;;;;;;;;5040068;28;20040;-74
2020/12/09 09:26:22;;;;;;;52.65;15.15;;;;;;;;;;5038841;28;20381;-76
2020/12/09 09:28:47;;;;;;;58.22;16.95;;;;;;;;;;5032258;28;20077;-74
2020/12/09 09:31:13;;;;;;;47.60;16.38;;;;;;;;;;5043445;28;20488;-73
2020/12/09 09:33:38;;;;;;;42.00;13.90;;;;;;;;;;5032024;28;20416;-74
2020/12/09 09:36:03;;;;;;;21.05;7.10;;;;;;;;;;5027338;28;20142;-75
2020/12/09 09:38:29;;;;;;;38.45;8.18;;;;;;;;;;5039170;28;20040;-73
2020/12/09 09:40:54;;;;;;;29.52;8.15;;;;;;;;;;5030258;28;20076;-74
2020/12/09 09:43:19;;;;;;;36.03;11.13;;;;;;;;;;5043637;28;20041;-74
2020/12/09 09:45:44;;;;;;;41.90;11.13;;;;;;;;;;5033120;28;20045;-74
2020/12/09 09:51:59;;;;;;;15.27;4.30;;;;;;;;;;4987597;28;20466;-75
2020/12/09 10:03:43;;;;;;;22.83;4.90;;;;;;;;;;5069714;28;20098;-74
2020/12/09 10:06:08;;;;;;;16.75;4.95;;;;;;;;;;5068552;28;20036;-75
2020/12/09 10:08:34;;;;;;;22.40;4.40;;;;;;;;;;5069080;28;20102;-75
2020/12/09 10:11:03;;;;;;;27.10;4.82;;;;;;;;;;5069467;28;20013;-74
2020/12/09 10:13:28;;;;;;;21.23;4.72;;;;;;;;;;5069037;28;20036;-74
2020/12/09 10:15:53;;;;;;;17.52;4.18;;;;;;;;;;5069120;28;20037;-75
2020/12/09 10:18:18;;;;;;;19.63;3.95;;;;;;;;;;5069242;28;20021;-74
2020/12/09 10:20:44;;;;;;;20.17;4.50;;;;;;;;;;5069137;28;20028;-74
2020/12/09 10:23:09;;;;;;;32.55;4.57;;;;;;;;;;5069162;28;20067;-73
2020/12/09 10:25:34;;;;;;;20.80;4.60;;;;;;;;;;5069234;28;20013;-73
2020/12/09 10:28:00;;;;;;;26.98;5.40;;;;;;;;;;5068482;28;20024;-74
2020/12/09 10:30:25;;;;;;;15.10;4.45;;;;;;;;;;5069759;28;20112;-74
2020/12/09 10:32:51;;;;;;;26.70;4.85;;;;;;;;;;5068880;28;20038;-74
2020/12/09 10:35:16;;;;;;;34.78;5.88;;;;;;;;;;5069348;28;20098;-74
2020/12/09 10:37:42;;;;;;;18.27;4.55;;;;;;;;;;5068460;28;20033;-73
2020/12/09 10:40:07;;;;;;;16.20;4.45;;;;;;;;;;5069345;28;20012;-74
2020/12/09 10:42:32;;;;;;;14.05;4.32;;;;;;;;;;5068879;28;20027;-76
2020/12/09 10:44:58;;;;;;;21.40;3.88;;;;;;;;;;5067614;28;20496;-75
2020/12/09 10:47:23;;;;;;;22.48;4.35;;;;;;;;;;5067954;28;20012;-75
2020/12/09 10:49:49;;;;;;;31.98;4.55;;;;;;;;;;5068799;28;20166;-75
2020/12/09 10:52:14;;;;;;;22.15;5.13;;;;;;;;;;5068663;28;20037;-74
2020/12/09 10:54:40;;;;;;;21.30;4.65;;;;;;;;;;5068269;28;20045;-74
2020/12/09 10:57:05;;;;;;;25.60;5.05;;;;;;;;;;5068332;28;20033;-74
2020/12/09 10:59:31;;;;;;;12.52;3.00;;;;;;;;;;5068503;28;20110;-74
2020/12/09 11:01:57;;;;;;;18.05;5.53;;;;;;;;;;5068163;28;20103;-74
2020/12/09 11:04:22;;;;;;;21.58;3.33;;;;;;;;;;5068326;28;20086;-75
2020/12/09 11:06:47;;;;;;;14.52;3.45;;;;;;;;;;5058449;28;20483;-75
2020/12/09 11:09:13;;;;;;;18.45;3.75;;;;;;;;;;5055225;28;20538;-74
2020/12/09 11:11:45;;;;;;;17.02;3.83;;;;;;;;;;5054880;28;20029;-74
2020/12/09 11:14:10;;;;;;;15.70;4.05;;;;;;;;;;5055210;28;20032;-74
2020/12/09 11:16:35;;;;;;;16.05;3.15;;;;;;;;;;5053920;28;20071;-75
2020/12/09 11:19:01;;;;;;;27.52;4.63;;;;;;;;;;5054712;28;20051;-74
2020/12/09 11:21:26;;;;;;;14.65;3.15;;;;;;;;;;5054982;28;20036;-74
2020/12/09 11:34:08;;;;;;;11.07;3.47;;;;;;;;;;5051075;28;20039;-74
2020/12/09 11:39:36;;;;;;;33.45;6.00;;;;;;;;;;5051531;28;20079;-74
2020/12/09 11:42:03;;;;;;;46.00;8.50;;;;;;;;;;5051798;28;20418;-74
2020/12/09 11:47:45;;;;;;;20.33;6.00;;;;;;;;;;5050740;28;20148;-74
2020/12/09 11:53:13;;;;;;;12.57;3.95;;;;;;;;;;5050061;28;20082;-74
2020/12/09 11:58:41;;;;;;;22.23;6.22;;;;;;;;;;5050612;28;20096;-74
2020/12/09 12:04:09;;;;;;;24.75;6.82;;;;;;;;;;5050785;28;20167;-74
2020/12/09 12:09:37;;;;;;;18.48;7.60;;;;;;;;;;5050963;28;20020;-74
2020/12/09 12:15:07;;;;;;;30.70;8.20;;;;;;;;;;5050979;28;20115;-75
2020/12/09 12:20:35;;;;;;;17.73;5.75;;;;;;;;;;5051338;28;20082;-74
2020/12/09 12:26:03;;;;;;;70.70;24.30;;;;;;;;;;5050855;28;20486;-78
2020/12/09 12:31:31;;;;;;;66.65;26.15;;;;;;;;;;5051089;28;20031;-74
2020/12/09 12:36:59;;;;;;;71.25;30.40;;;;;;;;;;5050544;28;20036;-74
2020/12/09 12:42:27;;;;;;;53.92;20.20;;;;;;;;;;5050685;28;20162;-74
2020/12/09 12:47:55;;;;;;;48.42;21.15;;;;;;;;;;5050118;28;20031;-74
2020/12/09 12:50:21;;;;;;;58.92;23.00;;;;;;;;;;5047954;28;20131;-74
2020/12/09 12:52:47;;;;;;;61.88;21.58;;;;;;;;;;5049917;28;20056;-76
2020/12/09 12:55:12;;;;;;;57.28;21.13;;;;;;;;;;5050281;28;20076;-73
2020/12/09 12:57:37;;;;;;;34.83;16.15;;;;;;;;;;5049719;28;20029;-74
2020/12/09 13:00:03;;;;;;;57.42;20.15;;;;;;;;;;5050033;28;20017;-74
2020/12/09 13:02:28;;;;;;;45.60;20.20;;;;;;;;;;5050147;28;20032;-74
2020/12/09 13:04:54;;;;;;;44.13;15.10;;;;;;;;;;5050075;28;20029;-74
2020/12/09 13:07:19;;;;;;;85.13;22.95;;;;;;;;;;5049843;28;20012;-75
2020/12/09 13:09:44;;;;;;;55.60;27.48;;;;;;;;;;5049125;28;20017;-75
2020/12/09 13:12:09;;;;;;;75.15;31.42;;;;;;;;;;5050248;28;20025;-74
2020/12/09 13:14:35;;;;;;;130.70;62.25;;;;;;;;;;5049835;28;20384;-75
2020/12/09 13:17:00;;;;;;;94.90;51.50;;;;;;;;;;5048533;28;20057;-75
2020/12/09 13:19:25;;;;;;;64.18;32.15;;;;;;;;;;5049651;28;20025;-74
2020/12/09 13:21:51;;;;;;;64.75;33.55;;;;;;;;;;5049960;28;20056;-74
2020/12/09 13:24:16;;;;;;;79.80;36.25;;;;;;;;;;5049977;28;20025;-74
2020/12/09 13:26:42;;;;;;;73.68;33.55;;;;;;;;;;5049413;28;20091;-74
2020/12/09 13:29:07;;;;;;;35.60;16.92;;;;;;;;;;5048624;28;20079;-74
2020/12/09 13:31:34;;;;;;;35.78;15.63;;;;;;;;;;5049234;28;20025;-74
2020/12/09 13:33:59;;;;;;;30.45;12.75;;;;;;;;;;5041950;28;20082;-74
2020/12/09 13:36:25;;;;;;;29.85;8.68;;;;;;;;;;5047126;28;20021;-75
2020/12/09 13:38:53;;;;;;;24.40;9.82;;;;;;;;;;5047002;28;20044;-74
2020/12/09 13:41:18;;;;;;;26.50;10.02;;;;;;;;;;5047571;28;20511;-74
2020/12/09 13:43:43;;;;;;;27.08;9.15;;;;;;;;;;5046863;28;20048;-74
2020/12/09 13:46:08;;;;;;;20.42;9.75;;;;;;;;;;5047509;28;20047;-74
2020/12/09 13:48:34;;;;;;;26.23;10.52;;;;;;;;;;5047337;28;20033;-74
2020/12/09 13:50:59;;;;;;;34.88;12.43;;;;;;;;;;5046882;28;20025;-75
2020/12/09 13:53:25;;;;;;;41.72;14.93;;;;;;;;;;5047510;28;20020;-74
2020/12/09 13:55:50;;;;;;;35.38;13.65;;;;;;;;;;5047391;28;20489;-74
2020/12/09 13:58:15;;;;;;;32.25;12.20;;;;;;;;;;5047227;28;20018;-74
2020/12/09 14:00:41;;;;;;;24.63;10.02;;;;;;;;;;5047007;28;20059;-74
2020/12/09 14:03:06;;;;;;;22.42;8.68;;;;;;;;;;5046712;28;20031;-75
2020/12/09 14:05:31;;;;;;;18.48;6.75;;;;;;;;;;5047336;28;20021;-74
2020/12/09 14:07:56;;;;;;;22.15;6.68;;;;;;;;;;5046989;28;20036;-74
2020/12/09 14:10:22;;;;;;;19.45;6.05;;;;;;;;;;5046707;28;20024;-76
2020/12/09 14:12:48;;;;;;;17.48;8.65;;;;;;;;;;5046805;28;20021;-74
2020/12/09 14:15:13;;;;;;;30.05;11.93;;;;;;;;;;5046913;28;20072;-74
2020/12/09 14:17:38;;;;;;;32.30;10.88;;;;;;;;;;5047315;28;20040;-74
2020/12/09 14:20:05;;;;;;;25.00;12.70;;;;;;;;;;5047562;28;20020;-74
2020/12/09 14:22:30;;;;;;;41.58;16.05;;;;;;;;;;5046246;28;20016;-74
2020/12/09 14:24:56;;;;;;;41.45;18.38;;;;;;;;;;5047381;28;20400;-75
2020/12/09 14:27:21;;;;;;;45.63;22.45;;;;;;;;;;5046626;28;20507;-74
2020/12/09 14:29:46;;;;;;;42.00;22.55;;;;;;;;;;5049043;28;20449;-76
2020/12/09 14:32:12;;;;;;;36.30;19.70;;;;;;;;;;5048486;28;20044;-74
2020/12/09 14:34:37;;;;;;;37.95;21.45;;;;;;;;;;5048020;28;20122;-74
2020/12/09 14:37:02;;;;;;;35.15;19.80;;;;;;;;;;5048298;28;20033;-75
2020/12/09 14:39:28;;;;;;;40.45;19.50;;;;;;;;;;5049146;28;20033;-74
2020/12/09 14:41:53;;;;;;;37.65;17.17;;;;;;;;;;5051352;28;20020;-74
2020/12/09 14:44:21;;;;;;;39.42;17.42;;;;;;;;;;5053156;28;20017;-74
2020/12/09 14:46:46;;;;;;;35.20;15.60;;;;;;;;;;5052600;28;20098;-77
2020/12/09 14:49:12;;;;;;;31.83;14.90;;;;;;;;;;5052989;28;20017;-74
2020/12/09 14:51:41;;;;;;;35.00;12.70;;;;;;;;;;5052769;28;20048;-74
2020/12/09 14:54:07;;;;;;;28.95;12.38;;;;;;;;;;5052142;28;20052;-74
2020/12/09 14:56:32;;;;;;;26.85;10.50;;;;;;;;;;5052907;28;20017;-74
2020/12/09 14:58:57;;;;;;;23.60;10.88;;;;;;;;;;5052686;28;20469;-74
2020/12/09 15:01:23;;;;;;;23.42;10.13;;;;;;;;;;5052223;28;20037;-74
2020/12/09 15:03:51;;;;;;;29.85;11.35;;;;;;;;;;5053280;28;20453;-74
2020/12/09 15:06:17;;;;;;;33.03;12.88;;;;;;;;;;5052071;28;20052;-75
2020/12/09 15:08:44;;;;;;;22.73;9.48;;;;;;;;;;5044957;28;20036;-74
2020/12/09 15:11:27;;;;;;;24.55;9.85;;;;;;;;;;5050201;28;20405;-74
2020/12/09 15:13:52;;;;;;;33.97;11.52;;;;;;;;;;5049821;28;20036;-74
2020/12/09 15:16:19;;;;;;;23.77;9.75;;;;;;;;;;5049726;28;20037;-74
2020/12/09 15:18:45;;;;;;;39.63;20.75;;;;;;;;;;5050692;28;20027;-74
2020/12/09 15:21:10;;;;;;;43.88;18.23;;;;;;;;;;5051409;28;20029;-74
2020/12/09 15:23:36;;;;;;;36.28;16.02;;;;;;;;;;5052413;28;20448;-74
2020/12/09 15:26:01;;;;;;;46.53;18.95;;;;;;;;;;5051982;28;20399;-74
2020/12/09 15:28:27;;;;;;;85.03;49.38;;;;;;;;;;5051750;28;20060;-74
2020/12/09 15:30:52;;;;;;;66.18;36.17;;;;;;;;;;5052200;28;20392;-74
2020/12/09 15:33:17;;;;;;;76.82;38.92;;;;;;;;;;5050969;28;20396;-74
2020/12/09 15:35:44;;;;;;;42.70;16.52;;;;;;;;;;5051844;28;20051;-74
2020/12/09 15:38:09;;;;;;;23.45;10.73;;;;;;;;;;5051770;28;20115;-74
2020/12/09 15:40:35;;;;;;;29.45;10.07;;;;;;;;;;5051999;28;20537;-75
2020/12/09 15:43:00;;;;;;;27.05;9.38;;;;;;;;;;5052041;28;20029;-74
2020/12/09 15:45:26;;;;;;;23.20;7.82;;;;;;;;;;5051733;28;20036;-75
2020/12/09 15:47:51;;;;;;;25.38;9.25;;;;;;;;;;5051664;28;20021;-74
2020/12/09 15:50:17;;;;;;;25.60;10.13;;;;;;;;;;5051382;28;20037;-75
2020/12/09 15:52:43;;;;;;;31.77;8.18;;;;;;;;;;5051070;28;20033;-74
2020/12/09 15:55:09;;;;;;;28.10;10.20;;;;;;;;;;5051176;28;20048;-74
2020/12/09 15:57:35;;;;;;;27.80;13.05;;;;;;;;;;5051416;28;20025;-79
2020/12/09 16:00:00;;;;;;;38.28;14.50;;;;;;;;;;5052162;28;20037;-74
2020/12/09 16:02:28;;;;;;;25.98;12.82;;;;;;;;;;5050539;28;20021;-74
2020/12/09 16:04:54;;;;;;;42.30;15.43;;;;;;;;;;5051599;28;20028;-74
2020/12/09 16:07:20;;;;;;;27.88;11.10;;;;;;;;;;5050872;28;20396;-74
2020/12/09 16:09:45;;;;;;;33.25;13.35;;;;;;;;;;5051336;28;20021;-74
2020/12/09 16:12:10;;;;;;;36.72;12.57;;;;;;;;;;5051137;28;20029;-74
2020/12/09 16:14:35;;;;;;;33.97;14.45;;;;;;;;;;5051816;28;20503;-75
2020/12/09 16:17:01;;;;;;;34.35;15.02;;;;;;;;;;5050581;28;20013;-74
2020/12/09 16:19:26;;;;;;;44.38;13.98;;;;;;;;;;5050557;28;20638;-75
2020/12/09 16:21:51;;;;;;;43.05;15.27;;;;;;;;;;5050019;28;20041;-74
2020/12/09 16:24:17;;;;;;;39.10;18.92;;;;;;;;;;5051326;28;20013;-74
2020/12/09 16:26:42;;;;;;;31.83;16.05;;;;;;;;;;5050625;28;20244;-74
2020/12/09 16:29:07;;;;;;;21.42;10.00;;;;;;;;;;5051301;28;20040;-75
2020/12/09 16:31:33;;;;;;;23.35;10.55;;;;;;;;;;5050378;28;20137;-74
2020/12/09 16:34:00;;;;;;;24.35;10.07;;;;;;;;;;5050397;28;20040;-74
2020/12/09 16:36:26;;;;;;;23.98;9.02;;;;;;;;;;5051158;28;20033;-74
2020/12/09 16:38:52;;;;;;;23.95;9.10;;;;;;;;;;5050501;28;20021;-73
2020/12/09 16:41:17;;;;;;;19.65;9.05;;;;;;;;;;5050210;28;20021;-74
2020/12/09 16:43:42;;;;;;;24.77;8.73;;;;;;;;;;5051491;28;20033;-73
2020/12/09 16:46:09;;;;;;;34.75;13.82;;;;;;;;;;5050330;28;20013;-73
2020/12/09 16:48:35;;;;;;;129.10;52.78;;;;;;;;;;5050217;28;20033;-74
2020/12/09 16:51:00;;;;;;;125.78;56.40;;;;;;;;;;5050711;28;20055;-74
2020/12/09 16:53:25;;;;;;;59.85;29.48;;;;;;;;;;5050235;28;20460;-74
2020/12/09 16:55:51;;;;;;;39.22;15.35;;;;;;;;;;5050078;28;20095;-73
2020/12/09 16:58:16;;;;;;;56.42;27.13;;;;;;;;;;5050581;28;20041;-75
2020/12/09 17:00:41;;;;;;;83.70;41.58;;;;;;;;;;5049572;28;20021;-74
2020/12/09 17:03:06;;;;;;;85.65;37.85;;;;;;;;;;5043088;28;20091;-75
2020/12/09 17:05:32;;;;;;;76.32;35.00;;;;;;;;;;5044303;28;20484;-76
2020/12/09 17:07:57;;;;;;;48.70;24.05;;;;;;;;;;5045065;28;20082;-74
2020/12/09 17:10:22;;;;;;;51.78;21.25;;;;;;;;;;5045222;28;20033;-80
2020/12/09 17:12:47;;;;;;;49.78;21.08;;;;;;;;;;5044440;28;20425;-74
2020/12/09 17:15:13;;;;;;;55.95;21.40;;;;;;;;;;5044103;28;20024;-75
2020/12/09 17:17:38;;;;;;;52.17;22.00;;;;;;;;;;5044305;28;20171;-77
2020/12/09 17:20:04;;;;;;;77.88;37.60;;;;;;;;;;5044438;28;20040;-74
2020/12/09 17:22:32;;;;;;;67.40;27.85;;;;;;;;;;5044603;28;20021;-77
2020/12/09 17:24:58;;;;;;;55.00;21.70;;;;;;;;;;5043676;28;20060;-75
2020/12/09 17:27:23;;;;;;;47.05;19.75;;;;;;;;;;5045330;28;20554;-74
2020/12/09 17:29:48;;;;;;;34.60;15.27;;;;;;;;;;5045307;28;20021;-74
2020/12/09 17:32:14;;;;;;;41.28;18.15;;;;;;;;;;5044527;28;20056;-76
2020/12/09 17:34:39;;;;;;;43.13;18.52;;;;;;;;;;5044246;28;20045;-74
2020/12/09 17:37:04;;;;;;;37.13;15.48;;;;;;;;;;5044438;28;20100;-75
2020/12/09 17:39:30;;;;;;;45.22;21.05;;;;;;;;;;5044881;28;20154;-76
2020/12/09 17:41:56;;;;;;;35.92;16.42;;;;;;;;;;5045439;28;20261;-77
2020/12/09 17:44:21;;;;;;;39.35;17.08;;;;;;;;;;5044473;28;20024;-76
2020/12/09 17:46:49;;;;;;;38.55;19.23;;;;;;;;;;5043240;28;20039;-74
2020/12/09 17:49:14;;;;;;;52.45;18.38;;;;;;;;;;5042998;28;20035;-74
2020/12/09 17:51:39;;;;;;;61.03;19.70;;;;;;;;;;5044024;28;20020;-75
2020/12/09 17:54:04;;;;;;;45.92;15.52;;;;;;;;;;5043841;28;20771;-78
2020/12/09 17:56:30;;;;;;;50.47;17.38;;;;;;;;;;5043926;28;20039;-76
2020/12/09 17:58:55;;;;;;;36.53;14.65;;;;;;;;;;5043151;28;20517;-77
2020/12/09 18:01:21;;;;;;;48.50;15.95;;;;;;;;;;5044392;28;20136;-75
2020/12/09 18:03:47;;;;;;;47.22;16.00;;;;;;;;;;5043952;28;20034;-75
2020/12/09 18:06:12;;;;;;;28.88;13.35;;;;;;;;;;5044695;28;20479;-76
2020/12/09 18:08:40;;;;;;;37.72;16.08;;;;;;;;;;5043530;28;20116;-75
2020/12/09 18:11:06;;;;;;;46.10;17.08;;;;;;;;;;5037036;28;20048;-75
2020/12/09 18:13:31;;;;;;;49.75;16.98;;;;;;;;;;5040806;28;20021;-75
2020/12/09 18:15:56;;;;;;;31.00;12.48;;;;;;;;;;5040942;28;20041;-75
2020/12/09 18:18:22;;;;;;;35.67;13.60;;;;;;;;;;5048309;28;20051;-75
2020/12/09 18:20:47;;;;;;;25.10;9.27;;;;;;;;;;5049073;28;20017;-74
2020/12/09 18:23:14;;;;;;;28.90;9.88;;;;;;;;;;5049340;28;20103;-75
2020/12/09 18:25:39;;;;;;;18.50;6.82;;;;;;;;;;5052472;28;20035;-75
2020/12/09 18:28:04;;;;;;;20.63;8.02;;;;;;;;;;5049601;28;20024;-75
2020/12/09 18:30:30;;;;;;;21.25;7.93;;;;;;;;;;5049137;28;20033;-77
2020/12/09 18:32:56;;;;;;;19.65;7.82;;;;;;;;;;5049285;28;20037;-76
2020/12/09 18:35:21;;;;;;;17.25;7.45;;;;;;;;;;5048971;28;20386;-74
2020/12/09 18:37:46;;;;;;;25.25;8.65;;;;;;;;;;5048907;28;20028;-75
2020/12/09 18:40:12;;;;;;;24.33;7.78;;;;;;;;;;5050108;28;20040;-76
2020/12/09 18:42:37;;;;;;;31.77;10.30;;;;;;;;;;5048859;28;20040;-77
2020/12/09 18:45:02;;;;;;;34.83;9.68;;;;;;;;;;5048461;28;20167;-75
2020/12/09 18:47:28;;;;;;;16.63;7.05;;;;;;;;;;5049059;28;20041;-77
2020/12/09 18:49:54;;;;;;;30.35;7.20;;;;;;;;;;5048787;28;20064;-75
2020/12/09 18:52:19;;;;;;;27.85;6.90;;;;;;;;;;5048612;28;20036;-77
2020/12/09 18:54:44;;;;;;;27.40;8.15;;;;;;;;;;5048189;28;20053;-76
2020/12/09 18:57:10;;;;;;;19.13;6.70;;;;;;;;;;5049206;28;20024;-75
2020/12/09 18:59:41;;;;;;;29.50;7.53;;;;;;;;;;5048182;28;20119;-75
2020/12/09 19:02:07;;;;;;;22.42;7.88;;;;;;;;;;5047434;28;20029;-75
2020/12/09 19:04:32;;;;;;;21.60;8.20;;;;;;;;;;5048438;28;20518;-75
2020/12/09 19:06:57;;;;;;;22.23;7.80;;;;;;;;;;5048670;28;20044;-75
2020/12/09 19:09:23;;;;;;;24.80;12.30;;;;;;;;;;5047772;28;20079;-78
2020/12/09 19:11:48;;;;;;;21.88;10.85;;;;;;;;;;5048654;28;20044;-74
2020/12/09 19:14:13;;;;;;;28.92;9.40;;;;;;;;;;5047486;28;20025;-75
2020/12/09 19:16:39;;;;;;;36.80;7.95;;;;;;;;;;5049195;28;20048;-75
2020/12/09 19:19:05;;;;;;;19.65;7.80;;;;;;;;;;5043166;28;20433;-75
2020/12/09 19:21:31;;;;;;;26.10;8.13;;;;;;;;;;5048532;28;20120;-76
2020/12/09 19:23:56;;;;;;;25.38;10.18;;;;;;;;;;5047772;28;20174;-75
2020/12/09 19:26:26;;;;;;;19.92;7.72;;;;;;;;;;5046852;28;20017;-75
2020/12/09 19:28:52;;;;;;;26.00;7.80;;;;;;;;;;5047415;28;20040;-75
2020/12/09 19:31:25;;;;;;;27.02;9.38;;;;;;;;;;5048076;28;20048;-75
2020/12/09 19:33:50;;;;;;;32.50;7.97;;;;;;;;;;5049874;28;20230;-75
2020/12/09 19:36:16;;;;;;;30.67;9.25;;;;;;;;;;5051820;28;20044;-74
2020/12/09 19:38:41;;;;;;;25.65;8.20;;;;;;;;;;5051136;28;20021;-79
2020/12/09 19:41:10;;;;;;;21.48;7.25;;;;;;;;;;5051356;28;20025;-74
2020/12/09 19:43:35;;;;;;;27.17;5.40;;;;;;;;;;5051602;28;20388;-75
2020/12/09 19:46:01;;;;;;;21.42;5.00;;;;;;;;;;5052289;28;20013;-77
2020/12/09 19:48:26;;;;;;;18.50;6.30;;;;;;;;;;5043494;28;20778;-76
2020/12/09 19:50:51;;;;;;;24.27;6.47;;;;;;;;;;5047680;28;20029;-75
2020/12/09 19:53:17;;;;;;;31.75;8.15;;;;;;;;;;5047659;28;20361;-75
2020/12/09 19:55:42;;;;;;;24.98;6.30;;;;;;;;;;5047630;28;20420;-76
2020/12/09 19:58:11;;;;;;;23.95;6.90;;;;;;;;;;5047849;28;20122;-75
2020/12/09 20:00:37;;;;;;;18.10;6.60;;;;;;;;;;5047567;28;20021;-76
2020/12/09 20:03:02;;;;;;;26.73;5.15;;;;;;;;;;5048178;28;20094;-76
2020/12/09 20:05:27;;;;;;;24.60;6.35;;;;;;;;;;5047693;28;20072;-75
2020/12/09 20:07:53;;;;;;;25.33;7.32;;;;;;;;;;5047229;28;20017;-75
2020/12/09 20:10:18;;;;;;;24.48;5.78;;;;;;;;;;5047882;28;20082;-75
2020/12/09 20:12:43;;;;;;;27.45;6.95;;;;;;;;;;5047878;28;20040;-75
2020/12/09 20:15:08;;;;;;;24.25;7.97;;;;;;;;;;5047508;28;20040;-75
2020/12/09 20:17:34;;;;;;;25.98;5.82;;;;;;;;;;5047055;28;20386;-75
2020/12/09 20:19:59;;;;;;;23.25;5.55;;;;;;;;;;5040501;28;20037;-77
2020/12/09 20:22:27;;;;;;;21.67;5.95;;;;;;;;;;5043002;28;20575;-77
2020/12/09 20:24:52;;;;;;;33.40;9.65;;;;;;;;;;5042542;28;20025;-76
2020/12/09 20:27:17;;;;;;;23.92;8.40;;;;;;;;;;5043374;28;20060;-76
2020/12/09 20:29:44;;;;;;;16.23;5.72;;;;;;;;;;5043305;28;20389;-76
2020/12/09 20:32:09;;;;;;;24.92;6.35;;;;;;;;;;5042819;28;20481;-76
2020/12/09 20:34:34;;;;;;;22.55;7.57;;;;;;;;;;5045233;28;20040;-76
2020/12/09 20:37:01;;;;;;;22.52;7.15;;;;;;;;;;5046680;28;20324;-76
2020/12/09 20:39:26;;;;;;;23.23;6.97;;;;;;;;;;5047563;28;20027;-75
2020/12/09 20:41:51;;;;;;;21.33;5.72;;;;;;;;;;5047876;28;20037;-75
2020/12/09 20:44:16;;;;;;;25.73;5.50;;;;;;;;;;5048659;28;20016;-74
2020/12/09 20:46:42;;;;;;;10.15;4.63;;;;;;;;;;5048579;28;20310;-74
2020/12/09 20:49:08;;;;;;;17.58;4.13;;;;;;;;;;5048172;28;20476;-74
2020/12/09 20:51:39;;;;;;;17.70;4.55;;;;;;;;;;5048184;28;20021;-73
2020/12/09 20:54:05;;;;;;;15.77;5.40;;;;;;;;;;5047938;28;20041;-73
2020/12/09 20:56:30;;;;;;;20.42;5.05;;;;;;;;;;5047943;28;20056;-73
2020/12/09 20:58:55;;;;;;;23.17;5.30;;;;;;;;;;5048209;28;20067;-75
2020/12/09 21:01:20;;;;;;;12.63;4.75;;;;;;;;;;5048227;28;20068;-77
2020/12/09 21:03:46;;;;;;;25.27;5.00;;;;;;;;;;5046835;28;20421;-75
2020/12/09 21:06:11;;;;;;;23.65;4.93;;;;;;;;;;5048093;28;20024;-75
2020/12/09 21:08:37;;;;;;;19.25;4.72;;;;;;;;;;5048087;28;20048;-76
2020/12/09 21:11:03;;;;;;;23.45;4.32;;;;;;;;;;5038427;28;20041;-74
2020/12/09 21:13:28;;;;;;;18.77;3.95;;;;;;;;;;5042850;28;20025;-75
2020/12/09 21:15:54;;;;;;;22.83;3.80;;;;;;;;;;5038395;28;20044;-76
2020/12/09 21:18:19;;;;;;;17.52;3.92;;;;;;;;;;5035565;28;20044;-75
2020/12/09 21:20:45;;;;;;;12.98;3.35;;;;;;;;;;5043206;28;20024;-76
2020/12/09 21:23:13;;;;;;;16.73;4.10;;;;;;;;;;5045162;28;20115;-77
2020/12/09 21:25:39;;;;;;;20.23;5.32;;;;;;;;;;5044441;28;20394;-75
2020/12/09 21:28:04;;;;;;;19.20;3.45;;;;;;;;;;5044277;28;20037;-76
2020/12/09 21:30:30;;;;;;;20.27;3.90;;;;;;;;;;5045115;28;20032;-75
2020/12/09 21:32:55;;;;;;;17.33;4.45;;;;;;;;;;5044600;28;20047;-75
2020/12/09 21:35:20;;;;;;;17.67;3.30;;;;;;;;;;5043756;28;20040;-76
2020/12/09 21:37:46;;;;;;;14.75;4.28;;;;;;;;;;5044288;28;20222;-78
2020/12/09 21:40:11;;;;;;;20.58;4.25;;;;;;;;;;5043676;28;20464;-75
2020/12/09 21:42:37;;;;;;;21.08;5.03;;;;;;;;;;5044499;28;20461;-75
2020/12/09 21:45:07;;;;;;;13.50;4.03;;;;;;;;;;5043549;28;20230;-75
2020/12/09 21:47:32;;;;;;;9.85;2.83;;;;;;;;;;5043795;28;20456;-75
2020/12/09 21:49:57;;;;;;;11.68;3.40;;;;;;;;;;5041979;28;20052;-77
2020/12/09 21:52:23;;;;;;;13.73;3.30;;;;;;;;;;5044500;28;20063;-75
2020/12/09 21:54:49;;;;;;;11.32;3.20;;;;;;;;;;5045421;28;20056;-77
2020/12/09 21:57:14;;;;;;;18.50;3.70;;;;;;;;;;5046063;28;20033;-76
2020/12/09 21:59:39;;;;;;;18.10;4.13;;;;;;;;;;5044158;28;20059;-76
2020/12/09 22:02:07;;;;;;;13.93;4.03;;;;;;;;;;5047962;28;20037;-75
2020/12/09 22:04:32;;;;;;;23.08;5.95;;;;;;;;;;5047822;28;20469;-76
2020/12/09 22:06:58;;;;;;;18.70;3.60;;;;;;;;;;5048898;28;20105;-75
2020/12/09 22:09:24;;;;;;;17.13;3.15;;;;;;;;;;5048455;28;20037;-75
2020/12/09 22:11:49;;;;;;;20.02;4.53;;;;;;;;;;5048351;28;20401;-76
2020/12/09 22:14:15;;;;;;;19.42;3.80;;;;;;;;;;5051998;28;20104;-75
2020/12/09 22:16:40;;;;;;;23.67;5.03;;;;;;;;;;5050593;28;20036;-75
2020/12/09 22:19:05;;;;;;;20.88;4.05;;;;;;;;;;5050837;28;20021;-75
2020/12/09 22:21:30;;;;;;;11.52;3.70;;;;;;;;;;5051976;28;20017;-75
2020/12/09 22:23:56;;;;;;;14.30;3.40;;;;;;;;;;5051607;28;20041;-75
2020/12/09 22:26:21;;;;;;;21.30;5.85;;;;;;;;;;5051620;28;20067;-74
2020/12/09 22:28:47;;;;;;;19.70;5.22;;;;;;;;;;5051413;28;20463;-77
2020/12/09 22:31:15;;;;;;;16.38;3.92;;;;;;;;;;5051398;28;20041;-75
2020/12/09 22:33:41;;;;;;;15.27;4.32;;;;;;;;;;5051445;28;20025;-74
2020/12/09 22:36:27;;;;;;;17.33;3.85;;;;;;;;;;5051087;28;20030;-75
2020/12/09 22:38:53;;;;;;;20.20;5.00;;;;;;;;;;5050333;28;20049;-75
2020/12/09 22:41:18;;;;;;;16.23;3.97;;;;;;;;;;5051228;28;20067;-75
2020/12/09 22:43:44;;;;;;;22.90;4.60;;;;;;;;;;5047569;28;20060;-76
2020/12/09 22:46:28;;;;;;;19.42;5.20;;;;;;;;;;5048783;28;20538;-75
2020/12/09 22:48:54;;;;;;;16.17;7.45;;;;;;;;;;5047887;28;20381;-75
2020/12/09 22:51:20;;;;;;;22.58;4.82;;;;;;;;;;5049004;28;20052;-75
2020/12/09 22:53:45;;;;;;;15.35;4.28;;;;;;;;;;5048516;28;20052;-75
2020/12/09 22:56:11;;;;;;;26.65;5.65;;;;;;;;;;5047873;28;20120;-75
2020/12/09 22:58:37;;;;;;;18.73;4.38;;;;;;;;;;5047782;28;20031;-75
